METAR Data
IDs: Format: Raw Decoded Include TAF

Data at: 2040 UTC 18 Apr 2021

K24J 182035Z AUTO 00000KT 1/2SM BR BKN003 SCT010 OVC047 19/19 A2988 RMK A01
K24J 182015Z AUTO 00000KT 1SM BR FEW003 BKN027 OVC050 19/19 A2988 RMK A01
K24J 181955Z AUTO 00000KT 3SM BR FEW003 SCT035 BKN055 19/19 A2988 RMK A01
K24J 181935Z AUTO 00000KT 1 3/4SM VCTS BR SCT007 BKN028 OVC042 20/20 A2990 RMK A01 LTG DSNT NE
K24J 181915Z AUTO 00000KT 2 1/2SM BR SCT011 BKN020 OVC042 20/20 A2989 RMK A01
K24J 181855Z AUTO 00000KT 9SM BKN012 BKN017 OVC041 21/21 A2988 RMK A01 LTG DSNT NE AND SW AND W
K24J 181835Z AUTO 00000KT 10SM FEW013 BKN040 OVC048 20/21 A2989 RMK A01
K24J 181815Z AUTO 00000KT 10SM SCT013 SCT018 OVC055 21/21 A2990 RMK A01
K24J 181755Z AUTO 00000KT 10SM BKN012 OVC060 21/21 A2990 RMK A01
K24J 181735Z AUTO 00000KT 10SM FEW009 SCT013 BKN055 20/20 A2991 RMK A01
K24J 181715Z AUTO 00000KT 9SM FEW010 SCT065 BKN090 20/20 A2992 RMK A01
K24J 181655Z AUTO 00000KT 4SM BR SCT010 SCT030 BKN070 20/20 A2990 RMK A01
K24J 181635Z AUTO 00000KT 10SM FEW008 SCT016 BKN075 20/20 A2991 RMK A01
K24J 181615Z AUTO 00000KT 10SM FEW008 SCT014 BKN075 19/19 A2992 RMK A01
K24J 181555Z AUTO VRB04KT 10SM BKN009 BKN013 OVC017 19/19 A2996 RMK A01
K24J 181535Z AUTO 00000KT 10SM BKN008 OVC013 20/20 A2994 RMK A01
K24J 181515Z AUTO 00000KT 10SM BKN007 OVC012 19/19 A2993 RMK A01
K24J 181455Z AUTO 00000KT 10SM BKN005 BKN010 OVC016 19/19 A2993 RMK A01
K24J 181435Z AUTO 00000KT 10SM OVC005 19/19 A2993 RMK A01
K24J 181415Z AUTO 00000KT 9SM BKN006 OVC010 19/19 A2994 RMK A01
K24J 181355Z AUTO 00000KT 10SM BKN004 BKN007 OVC011 19/19 A2995 RMK A01
K24J 181335Z AUTO 00000KT 3SM BR BKN004 BKN008 BKN012 19/19 A2992 RMK A01
K24J 181315Z AUTO 00000KT 5SM BR OVC004 18/19 A2994 RMK A01
K24J 181255Z AUTO 00000KT 3SM BR BKN004 BKN011 OVC032 18/18 A2992 RMK A01
K24J 181235Z AUTO 00000KT 9SM BKN004 OVC010 18/18 A2995 RMK A01
K24J 181215Z AUTO 00000KT 9SM BKN004 OVC008 18/18 A2996 RMK A01
K24J 181155Z AUTO 00000KT 7SM BKN004 BKN008 OVC015 18/18 A2993 RMK A01
K24J 181135Z AUTO 00000KT 8SM BKN004 BKN010 OVC015 18/18 A2992 RMK A01 LTG DSNT SW
K24J 181115Z AUTO 00000KT 10SM SCT004 OVC012 18/18 A2991 RMK A01
K24J 181055Z AUTO 00000KT 9SM SCT003 OVC013 18/18 A2987 RMK A01
K24J 181035Z AUTO 00000KT 7SM SCT003 OVC015 18/18 A2986 RMK A01
K24J 181015Z AUTO 00000KT 6SM BR SCT008 OVC016 18/18 A2988 RMK A01
K24J 180955Z AUTO 00000KT 4SM BR SCT005 BKN008 OVC013 18/18 A2990 RMK A01
K24J 180935Z AUTO 00000KT 5SM BR BKN004 OVC011 18/18 A2988 RMK A01
K24J 180915Z AUTO 00000KT 5SM BR FEW004 OVC010 18/18 A2990 RMK A01
K24J 180855Z AUTO 00000KT 10SM FEW003 OVC009 18/18 A2990 RMK A01
K24J 180835Z AUTO 00000KT 9SM OVC008 18/18 A2990 RMK A01
K24J 180815Z AUTO 00000KT 10SM OVC008 18/18 A2989 RMK A01
K24J 180755Z AUTO 00000KT 10SM OVC008 18/18 A2987 RMK A01
K24J 180735Z AUTO 00000KT 8SM OVC007 18/18 A2987 RMK A01
K24J 180715Z AUTO 00000KT 9SM OVC007 18/18 A2987 RMK A01
K24J 180655Z AUTO 00000KT 8SM OVC006 18/18 A2986 RMK A01
K24J 180635Z AUTO 00000KT 7SM OVC006 18/18 A2987 RMK A01
K24J 180615Z AUTO 00000KT 4SM BR BKN006 OVC010 18/18 A2991 RMK A01
K24J 180555Z AUTO 00000KT 7SM BKN006 BKN011 OVC049 18/19 A2992 RMK A01
K24J 180535Z AUTO 00000KT 4SM BR SCT005 BKN070 OVC110 18/19 A2992 RMK A01
K24J 180515Z AUTO 00000KT 5SM BR FEW005 BKN075 OVC100 18/19 A2992 RMK A01
K24J 180455Z AUTO 22003KT 10SM FEW055 OVC110 18/19 A2990 RMK A01
K24J 180435Z AUTO 00000KT 9SM FEW025 SCT055 BKN070 18/19 A2989 RMK A01
K24J 180415Z AUTO 00000KT 7SM FEW029 SCT055 BKN075 19/19 A2988 RMK A01
K24J 180355Z AUTO 00000KT 4SM BR SCT032 BKN055 OVC120 19/19 A2990 RMK A01
K24J 180335Z AUTO 00000KT 2 1/2SM BR SCT037 BKN060 OVC095 19/19 A2990 RMK A01
K24J 180315Z AUTO 21004KT 6SM BR FEW047 BKN075 OVC085 19/19 A2991 RMK A01
K24J 180255Z AUTO 00000KT 7SM FEW043 SCT075 OVC085 19/19 A2989 RMK A01
K24J 180235Z AUTO 00000KT 3SM BR FEW049 FEW070 BKN090 19/19 A2987 RMK A01
K24J 180215Z AUTO 00000KT 7SM FEW029 SCT065 BKN095 19/19 A2986 RMK A01
K24J 180155Z AUTO 00000KT 6SM BR FEW038 BKN085 OVC100 19/19 A2987 RMK A01
K24J 180135Z AUTO 00000KT 3SM BR FEW003 BKN037 OVC070 19/19 A2988 RMK A01
K24J 180115Z AUTO 00000KT 2 1/2SM BR SCT003 BKN035 OVC075 19/19 A2988 RMK A01
K24J 180055Z AUTO 00000KT 4SM BR SCT050 BKN065 OVC095 19/19 A2987 RMK A01 LTG DSNT E-SW
K24J 180035Z AUTO 00000KT 4SM BR FEW005 SCT050 BKN070 19/19 A2986 RMK A01 LTG DSNT E-SW
K24J 180015Z AUTO 00000KT 2 1/2SM VCTS BR FEW003 BKN034 OVC100 19/19 A2987 RMK A01 LTG DSNT ALQDS
K24J 172355Z AUTO 00000KT 1SM TS BKN003 BKN022 OVC029 19/19 A2988 RMK A01
K24J 172335Z AUTO 25004KT 1 3/4SM TS SCT003 BKN030 OVC036 20/20 A2990 RMK A01 LTG DSNT ALQDS
K24J 172315Z AUTO 00000KT 7SM VCTS OVC035 20/20 A2986 RMK A01 LTG DSNT SW-N
K24J 172255Z AUTO 00000KT 7SM OVC033 21/20 A2985 RMK A01 LTG DSNT SW-NW
K24J 172235Z AUTO 00000KT 8SM BKN031 OVC040 21/19 A2986 RMK A01 LTG DSNT NE AND W
K24J 172215Z AUTO 00000KT 10SM OVC030 22/18 A2986 RMK A01
K24J 172155Z AUTO 00000KT 10SM OVC030 22/19 A2986 RMK A01 LTG DSNT W
K24J 172135Z AUTO 00000KT 10SM OVC031 22/18 A2985 RMK A01
K24J 172115Z AUTO 32003KT 10SM OVC033 22/19 A2984 RMK A01
K24J 172055Z AUTO 00000KT 10SM BKN033 22/18 A2983 RMK A01
K24J 172035Z AUTO 00000KT 10SM CLR 22/18 A2982 RMK A01
K24J 172015Z AUTO 00000KT 10SM FEW019 23/18 A2982 RMK A01
K24J 171955Z AUTO 00000KT 10SM FEW018 FEW023 23/18 A2984 RMK A01
K24J 171935Z AUTO 00000KT 10SM SCT018 BKN023 22/19 A2985 RMK A01
K24J 171915Z AUTO 00000KT 10SM BKN017 BKN022 OVC050 22/19 A2986 RMK A01
K24J 171855Z AUTO 00000KT 10SM SCT015 OVC023 21/19 A2987 RMK A01
K24J 171835Z AUTO 00000KT 10SM FEW015 OVC023 21/19 A2988 RMK A01
K24J 171815Z AUTO 00000KT 10SM SCT015 BKN023 21/20 A2988 RMK A01
K24J 171755Z AUTO 00000KT 10SM SCT009 BKN014 OVC023 20/20 A2989 RMK A01
K24J 171735Z AUTO 00000KT 10SM OVC008 20/20 A2989 RMK A01
K24J 171715Z AUTO 00000KT 9SM BKN006 BKN010 OVC014 19/19 A2989 RMK A01
K24J 171655Z AUTO 00000KT 7SM OVC005 19/19 A2989 RMK A01
K24J 171635Z AUTO VRB03KT 8SM OVC006 19/19 A2990 RMK A01
K24J 171615Z AUTO 00000KT 10SM OVC005 19/19 A2991 RMK A01
K24J 171555Z AUTO 00000KT 9SM OVC004 19/19 A2991 RMK A01
K24J 171535Z AUTO VRB03KT 8SM OVC004 18/18 A2990 RMK A01
K24J 171515Z AUTO 03004KT 7SM OVC004 18/18 A2991 RMK A01
K24J 171455Z AUTO 01004KT 10SM OVC005 18/18 A2992 RMK A01
K24J 171435Z AUTO 00000KT 10SM OVC005 18/18 A2990 RMK A01
K24J 171415Z AUTO 00000KT 9SM OVC005 18/18 A2991 RMK A01
K24J 171355Z AUTO 00000KT 9SM OVC005 18/18 A2990 RMK A01
K24J 171335Z AUTO 00000KT 10SM OVC004 18/18 A2989 RMK A01
K24J 171315Z AUTO 00000KT 10SM OVC004 18/18 A2989 RMK A01
K24J 171255Z AUTO 00000KT 10SM OVC004 17/18 A2989 RMK A01
K24J 171235Z AUTO 00000KT 10SM OVC004 17/17 A2986 RMK A01
K24J 171215Z AUTO 00000KT 9SM OVC003 17/17 A2985 RMK A01
K24J 171155Z AUTO 00000KT 2SM BR BKN003 BKN014 OVC041 17/17 A2985 RMK A01
K24J 171135Z AUTO 00000KT 3SM BR SCT004 BKN015 OVC041 17/17 A2985 RMK A01
K24J 171115Z AUTO 00000KT 7SM BKN004 OVC017 17/17 A2985 RMK A01
K24J 171055Z AUTO 00000KT 6SM BR OVC003 17/17 A2984 RMK A01
K24J 171035Z AUTO 00000KT 6SM BR OVC003 17/17 A2984 RMK A01
K24J 171015Z AUTO 00000KT 3SM BR OVC003 17/17 A2983 RMK A01 LTG DSNT S
K24J 170955Z AUTO 00000KT 4SM BR OVC004 17/17 A2984 RMK A01 LTG DSNT S AND SW
K24J 170935Z AUTO 00000KT 5SM BR OVC004 17/17 A2983 RMK A01
K24J 170915Z AUTO 00000KT 6SM BR BKN004 OVC012 17/17 A2983 RMK A01 LTG DSNT S AND SW
K24J 170855Z AUTO 00000KT 5SM BR FEW004 OVC012 17/17 A2983 RMK A01